Time;durP1;ratioP1;P1;durP2;ratioP2;P2;SDS_P1;SDS_P2;PMS_P1;PMS_P2;Temp;Humidity;BMP_temperature;BMP_pressure;BME280_temperature;BME280_humidity;BME280_pressure;Samples;Min_cycle;Max_cycle;Signal;HPM_P1;HPM_P2
2023/12/04 00:02:05;;;;;;;11.95;8.35;;;;;;;-7.11;100.00;98455.00;1224462;75;2927400;-73
2023/12/04 00:04:38;;;;;;;13.35;8.80;;;;;;;-6.93;100.00;98446.72;1225644;75;2892539;-72
2023/12/04 00:07:11;;;;;;;11.10;8.30;;;;;;;-7.08;100.00;98441.03;1224838;75;2917105;-72
2023/12/04 00:09:44;;;;;;;11.35;8.60;;;;;;;-7.03;100.00;98439.25;1223572;75;2929291;-71
2023/12/04 00:12:20;;;;;;;13.40;9.70;;;;;;;-7.17;100.00;98440.38;1224579;75;2928665;-70
2023/12/04 00:14:52;;;;;;;10.80;8.10;;;;;;;-7.19;100.00;98441.84;1225021;75;2920143;-70
2023/12/04 00:17:25;;;;;;;11.20;7.95;;;;;;;-7.10;100.00;98440.59;1221983;75;3045360;-72
2023/12/04 00:19:58;;;;;;;11.75;8.55;;;;;;;-7.29;100.00;98441.22;1224914;75;2920232;-72
2023/12/04 00:22:31;;;;;;;10.10;7.85;;;;;;;-7.22;100.00;98447.84;1224754;75;2924072;-72
2023/12/04 00:25:04;;;;;;;11.60;8.30;;;;;;;-7.20;100.00;98441.06;1224504;75;2918591;-73
2023/12/04 00:27:39;;;;;;;11.60;8.95;;;;;;;-7.45;100.00;98450.25;1225202;75;2930055;-71
2023/12/04 00:30:13;;;;;;;13.65;9.10;;;;;;;-7.26;100.00;98450.41;1224512;75;2919545;-69
2023/12/04 00:32:46;;;;;;;12.50;8.20;;;;;;;-7.26;100.00;98437.13;1224605;75;2937333;-72
2023/12/04 00:35:19;;;;;;;10.45;7.65;;;;;;;-7.18;100.00;98441.50;1224874;75;2920011;-71
2023/12/04 00:37:52;;;;;;;9.95;7.00;;;;;;;-7.22;100.00;98442.53;1224676;75;2932892;-71
2023/12/04 00:40:25;;;;;;;10.50;6.75;;;;;;;-7.18;100.00;98446.06;1224842;75;2919534;-67
2023/12/04 00:43:00;;;;;;;9.10;6.45;;;;;;;-7.18;100.00;98440.75;1225157;75;2913643;-67
2023/12/04 00:45:33;;;;;;;7.55;5.25;;;;;;;-7.20;100.00;98440.31;1224173;75;2944735;-65
2023/12/04 00:48:07;;;;;;;7.40;5.30;;;;;;;-7.19;100.00;98444.50;1224943;75;2921960;-65
2023/12/04 00:50:40;;;;;;;7.15;5.20;;;;;;;-7.31;100.00;98448.78;1224261;75;2925250;-66
2023/12/04 00:53:13;;;;;;;6.95;5.10;;;;;;;-7.28;100.00;98440.09;1224488;75;2930035;-65
2023/12/04 00:55:46;;;;;;;9.45;5.85;;;;;;;-7.39;100.00;98446.22;1224919;75;2922652;-64
2023/12/04 00:58:21;;;;;;;6.15;4.80;;;;;;;-7.31;100.00;98440.00;1225096;75;2923507;-66
2023/12/04 01:00:55;;;;;;;7.25;5.45;;;;;;;-7.41;100.00;98443.13;1225251;75;2920564;-67
2023/12/04 01:03:28;;;;;;;7.90;5.90;;;;;;;-7.37;100.00;98444.78;1224373;75;2920434;-65
2023/12/04 01:06:00;;;;;;;10.10;7.35;;;;;;;-7.45;100.00;98444.94;1224507;75;2926638;-66
2023/12/04 01:08:33;;;;;;;9.20;6.50;;;;;;;-7.39;100.00;98439.03;1223138;75;2928756;-65
2023/12/04 01:11:07;;;;;;;8.25;5.65;;;;;;;-7.37;100.00;98428.81;1224986;75;2924677;-65
2023/12/04 01:13:42;;;;;;;6.90;5.35;;;;;;;-7.36;100.00;98425.06;1225283;67;2922423;-65
2023/12/04 01:16:15;;;;;;;7.15;5.25;;;;;;;-7.38;100.00;98426.53;1225215;75;2918043;-64
2023/12/04 01:18:48;;;;;;;8.00;5.15;;;;;;;-7.38;100.00;98418.53;1224047;75;2889128;-65
2023/12/04 01:21:21;;;;;;;6.35;4.70;;;;;;;-7.42;100.00;98415.78;1224907;75;2917774;-64
2023/12/04 01:23:54;;;;;;;6.40;4.85;;;;;;;-7.57;100.00;98416.50;1224539;75;2930534;-67
2023/12/04 01:26:27;;;;;;;7.55;5.00;;;;;;;-7.53;100.00;98423.47;1225082;75;2920088;-65
2023/12/04 01:29:03;;;;;;;7.50;5.75;;;;;;;-7.76;100.00;98422.41;1224403;75;2920031;-66
2023/12/04 01:31:36;;;;;;;10.10;6.30;;;;;;;-7.76;100.00;98427.72;1224620;75;2918454;-66
2023/12/04 01:34:08;;;;;;;11.15;6.50;;;;;;;-7.73;100.00;98421.72;1225283;75;2920775;-67
2023/12/04 01:36:45;;;;;;;12.90;8.50;;;;;;;-7.80;100.00;98442.78;1224776;75;2918855;-66
2023/12/04 01:39:17;;;;;;;10.80;7.55;;;;;;;-7.65;100.00;98438.63;1225014;75;2916037;-65
2023/12/04 01:41:50;;;;;;;11.55;8.20;;;;;;;-7.61;100.00;98431.56;1224082;75;2926281;-67
2023/12/04 01:44:26;;;;;;;8.10;6.85;;;;;;;-7.55;100.00;98430.19;1223899;75;2923226;-66
2023/12/04 01:46:59;;;;;;;9.50;6.70;;;;;;;-7.58;100.00;98430.88;1225337;75;2932853;-67
2023/12/04 01:49:32;;;;;;;9.30;6.20;;;;;;;-7.45;100.00;98418.34;1224996;75;2935031;-65
2023/12/04 01:52:05;;;;;;;8.20;5.75;;;;;;;-7.48;100.00;98422.41;1224768;75;2925714;-66
2023/12/04 01:54:38;;;;;;;8.25;5.75;;;;;;;-7.51;100.00;98413.22;1225736;75;2923090;-64
2023/12/04 01:57:12;;;;;;;7.75;5.45;;;;;;;-7.55;100.00;98423.00;1224571;75;2914946;-64
2023/12/04 01:59:48;;;;;;;6.45;4.70;;;;;;;-7.50;100.00;98408.72;1225004;75;2929843;-65
2023/12/04 02:02:21;;;;;;;7.15;4.70;;;;;;;-7.51;100.00;98410.56;1224405;75;2914258;-67
2023/12/04 02:04:55;;;;;;;6.35;4.40;;;;;;;-7.52;100.00;98418.91;1224460;75;2920308;-67
2023/12/04 02:07:28;;;;;;;5.65;4.50;;;;;;;-7.57;100.00;98416.50;1225350;75;2921522;-64
2023/12/04 02:10:01;;;;;;;5.75;4.30;;;;;;;-7.66;100.00;98408.63;1224503;75;2918535;-66
2023/12/04 02:12:34;;;;;;;4.65;3.75;;;;;;;-7.62;100.00;98404.19;1224981;75;2919448;-67
2023/12/04 02:15:11;;;;;;;6.20;3.85;;;;;;;-7.67;100.00;98403.66;1224758;75;2931278;-65
2023/12/04 02:17:46;;;;;;;5.80;4.30;;;;;;;-7.75;100.00;98405.31;1224154;75;2922075;-66
2023/12/04 02:20:20;;;;;;;5.70;4.40;;;;;;;-7.87;100.00;98392.84;1225211;75;2917523;-65
2023/12/04 02:22:53;;;;;;;5.60;4.30;;;;;;;-7.77;100.00;98396.91;1224679;75;2927458;-65
2023/12/04 02:25:28;;;;;;;6.65;4.65;;;;;;;-7.80;100.00;98392.28;1224157;75;2923973;-66
2023/12/04 02:28:05;;;;;;;6.65;4.65;;;;;;;-7.71;100.00;98390.25;1224519;75;2921518;-64
2023/12/04 02:30:40;;;;;;;7.30;5.25;;;;;;;-7.78;100.00;98390.81;1225539;75;2924735;-66
2023/12/04 02:33:17;;;;;;;7.20;4.50;;;;;;;-7.90;100.00;98393.50;1225214;75;2922332;-66
2023/12/04 02:35:50;;;;;;;8.45;6.60;;;;;;;-7.93;100.00;98389.63;1225270;83;2915398;-65
2023/12/04 02:38:24;;;;;;;9.30;5.60;;;;;;;-8.10;100.00;98391.75;1225182;75;2919804;-63
2023/12/04 02:41:00;;;;;;;8.50;5.95;;;;;;;-8.03;100.00;98391.97;1223044;75;2917720;-68
2023/12/04 02:43:33;;;;;;;6.90;5.15;;;;;;;-7.87;100.00;98394.72;1224940;75;2920209;-66
2023/12/04 02:46:06;;;;;;;6.85;4.70;;;;;;;-7.94;100.00;98393.41;1225516;75;2928031;-66
2023/12/04 02:48:39;;;;;;;9.10;6.30;;;;;;;-8.00;100.00;98392.09;1225304;75;2927307;-65
2023/12/04 02:51:13;;;;;;;7.30;5.10;;;;;;;-8.05;100.00;98402.19;1225202;75;2919099;-66
2023/12/04 02:53:46;;;;;;;7.40;5.15;;;;;;;-8.11;100.00;98395.53;1224960;75;2927259;-67
2023/12/04 02:56:21;;;;;;;6.90;4.90;;;;;;;-8.03;100.00;98403.38;1225666;75;2926298;-67
2023/12/04 02:58:54;;;;;;;7.25;4.55;;;;;;;-8.03;100.00;98398.06;1224965;75;2927204;-65
2023/12/04 03:01:27;;;;;;;6.30;4.55;;;;;;;-8.03;100.00;98392.75;1224671;75;2921653;-65
2023/12/04 03:04:00;;;;;;;5.95;4.40;;;;;;;-7.99;100.00;98398.16;1225236;75;2932891;-64
2023/12/04 03:06:33;;;;;;;5.75;4.25;;;;;;;-8.01;100.00;98393.22;1224429;75;2937619;-65
2023/12/04 03:09:06;;;;;;;6.05;4.10;;;;;;;-8.04;100.00;98393.09;1223621;75;2905146;-67
2023/12/04 03:11:44;;;;;;;5.20;4.10;;;;;;;-8.10;100.00;98386.44;1224839;75;2922441;-67
2023/12/04 03:14:17;;;;;;;5.60;4.40;;;;;;;-8.11;100.00;98388.31;1223897;75;2940416;-65
2023/12/04 03:16:49;;;;;;;8.15;5.55;;;;;;;-8.07;100.00;98380.47;1224719;75;2921865;-66
2023/12/04 03:19:22;;;;;;;9.50;6.25;;;;;;;-8.12;100.00;98380.72;1224593;75;2922683;-65
2023/12/04 03:21:55;;;;;;;11.30;7.05;;;;;;;-8.24;100.00;98381.50;1223222;75;2923433;-67
2023/12/04 03:24:28;;;;;;;10.85;7.45;;;;;;;-8.40;100.00;98386.72;1225356;75;2919407;-64
2023/12/04 03:27:03;;;;;;;11.20;7.15;;;;;;;-8.20;100.00;98383.16;1223991;75;2927151;-65
2023/12/04 03:29:36;;;;;;;9.05;6.60;;;;;;;-8.23;100.00;98380.38;1222783;75;2923633;-65
2023/12/04 03:32:09;;;;;;;8.60;5.50;;;;;;;-8.20;100.00;98383.16;1225467;75;2924841;-64
2023/12/04 03:34:42;;;;;;;8.10;5.75;;;;;;;-8.30;100.00;98375.59;1224659;75;2923340;-67
2023/12/04 03:37:15;;;;;;;7.20;5.05;;;;;;;-8.26;100.00;98379.16;1224713;75;2923941;-66
2023/12/04 03:39:48;;;;;;;8.10;4.85;;;;;;;-8.26;100.00;98376.50;1224474;75;2933700;-66
2023/12/04 03:42:23;;;;;;;5.65;4.15;;;;;;;-8.26;100.00;98370.41;1224351;75;2925748;-67
2023/12/04 03:44:56;;;;;;;7.55;4.55;;;;;;;-8.36;100.00;98379.59;1224930;75;2934359;-65
2023/12/04 03:47:29;;;;;;;6.05;4.15;;;;;;;-8.44;100.00;98383.16;1224964;75;2921671;-65
2023/12/04 03:50:02;;;;;;;6.30;4.25;;;;;;;-8.51;100.00;98374.97;1224705;75;2923433;-68
2023/12/04 03:52:34;;;;;;;6.70;4.60;;;;;;;-8.44;100.00;98364.56;1223929;75;2929454;-66
2023/12/04 03:55:09;;;;;;;7.70;4.85;;;;;;;-8.43;100.00;98369.56;1224685;75;2933101;-68
2023/12/04 03:57:45;;;;;;;6.80;4.85;;;;;;;-8.38;100.00;98360.56;1224517;75;2925260;-66
2023/12/04 04:00:18;;;;;;;6.30;4.55;;;;;;;-8.38;100.00;98363.22;1224461;75;2908359;-67
2023/12/04 04:02:51;;;;;;;6.85;5.00;;;;;;;-8.64;100.00;98355.63;1224073;75;2920944;-67
2023/12/04 04:05:24;;;;;;;8.05;5.15;;;;;;;-8.49;100.00;98352.31;1223683;75;2920413;-65
2023/12/04 04:07:57;;;;;;;6.35;4.45;;;;;;;-8.42;100.00;98347.22;1224411;75;2933256;-66
2023/12/04 04:10:30;;;;;;;8.40;4.55;;;;;;;-8.49;100.00;98352.31;1211867;75;3905293;-66
2023/12/04 04:13:05;;;;;;;5.75;4.70;;;;;;;-8.60;100.00;98346.66;1224432;75;2920530;-65
2023/12/04 04:15:38;;;;;;;6.70;4.55;;;;;;;-8.47;100.00;98351.97;1224729;75;2925997;-68
2023/12/04 04:18:11;;;;;;;6.30;4.50;;;;;;;-8.50;100.00;98348.09;1223834;75;2925992;-66
2023/12/04 04:20:44;;;;;;;6.30;4.85;;;;;;;-8.53;100.00;98348.00;1224382;75;2922635;-67
2023/12/04 04:23:17;;;;;;;7.75;4.80;;;;;;;-8.63;100.00;98354.53;1223708;75;2928030;-67
2023/12/04 04:25:49;;;;;;;8.05;5.50;;;;;;;-8.52;100.00;98358.28;1223479;75;2928086;-65
2023/12/04 04:28:25;;;;;;;7.75;5.15;;;;;;;-8.67;100.00;98353.63;1223956;75;2925189;-65
2023/12/04 04:30:58;;;;;;;8.50;5.85;;;;;;;-8.60;100.00;98349.31;1223965;75;2928035;-66
2023/12/04 04:33:30;;;;;;;5.95;4.95;;;;;;;-8.62;100.00;98345.44;1224325;75;2928583;-66
2023/12/04 04:36:03;;;;;;;6.10;4.35;;;;;;;-8.62;100.00;98345.44;1223301;75;2931462;-66
2023/12/04 04:38:37;;;;;;;6.05;4.30;;;;;;;-8.68;100.00;98357.38;1222987;75;2926981;-65
2023/12/04 04:41:10;;;;;;;6.80;4.65;;;;;;;-8.62;100.00;98354.19;1223396;75;2918703;-66
2023/12/04 04:43:45;;;;;;;6.85;4.20;;;;;;;-8.60;100.00;98359.16;1224300;75;2923716;-65
2023/12/04 04:46:18;;;;;;;6.05;4.35;;;;;;;-8.67;100.00;98361.59;1224773;75;2919556;-65
2023/12/04 04:48:51;;;;;;;5.25;4.10;;;;;;;-8.65;100.00;98359.38;1224489;75;2920277;-65
2023/12/04 04:51:25;;;;;;;5.60;4.35;;;;;;;-8.65;100.00;98354.09;1224061;75;2933312;-67
2023/12/04 04:53:58;;;;;;;6.35;4.30;;;;;;;-8.75;100.00;98359.81;1225488;75;2918069;-66
2023/12/04 04:56:31;;;;;;;6.55;4.60;;;;;;;-8.80;100.00;98348.31;1225188;75;2921360;-67
2023/12/04 04:59:06;;;;;;;7.10;4.85;;;;;;;-8.66;100.00;98355.16;1223911;75;2926172;-66
2023/12/04 05:01:39;;;;;;;8.15;5.50;;;;;;;-8.77;100.00;98362.03;1224195;75;2923647;-64
2023/12/04 05:04:12;;;;;;;7.15;5.10;;;;;;;-8.74;100.00;98362.13;1225046;75;2922248;-65
2023/12/04 05:06:45;;;;;;;7.85;5.55;;;;;;;-8.83;100.00;98364.09;1224347;75;2921253;-66
2023/12/04 05:09:18;;;;;;;9.75;6.50;;;;;;;-8.83;100.00;98358.81;1224950;75;2922789;-67
2023/12/04 05:11:50;;;;;;;10.30;7.35;;;;;;;-8.85;100.00;98356.50;1224055;75;2925375;-65
2023/12/04 05:14:27;;;;;;;10.15;6.65;;;;;;;-8.78;100.00;98350.63;1223496;75;2918021;-66
2023/12/04 05:17:00;;;;;;;8.60;6.15;;;;;;;-8.73;100.00;98362.91;1223751;75;2923661;-65
2023/12/04 05:19:32;;;;;;;10.70;5.95;;;;;;;-8.73;100.00;98361.06;1223644;75;2929270;-67
2023/12/04 05:22:06;;;;;;;7.65;5.65;;;;;;;-8.74;100.00;98364.03;1223205;75;2924155;-64
2023/12/04 05:24:39;;;;;;;7.75;5.40;;;;;;;-8.71;100.00;98366.78;1222654;75;2920547;-63
2023/12/04 05:27:12;;;;;;;7.35;5.20;;;;;;;-8.74;100.00;98364.03;1223358;75;2935349;-65
2023/12/04 05:29:49;;;;;;;8.15;5.80;;;;;;;-8.79;100.00;98360.47;1223090;75;2935172;-65
2023/12/04 05:32:21;;;;;;;11.30;7.05;;;;;;;-8.73;100.00;98362.91;1223418;75;2879673;-64
2023/12/04 05:34:54;;;;;;;11.05;7.45;;;;;;;-8.73;100.00;98355.75;1220563;75;2924401;-64
2023/12/04 05:37:27;;;;;;;10.50;7.45;;;;;;;-8.71;100.00;98360.69;1222909;75;2933578;-66
2023/12/04 05:40:00;;;;;;;9.95;6.20;;;;;;;-8.68;100.00;98366.13;1223283;75;2923095;-65
2023/12/04 05:42:33;;;;;;;10.20;6.40;;;;;;;-8.64;100.00;98364.34;1220912;75;2952757;-64
2023/12/04 05:45:10;;;;;;;10.15;5.70;;;;;;;-8.71;100.00;98373.97;1223108;75;2922837;-64
2023/12/04 05:47:47;;;;;;;14.05;8.70;;;;;;;-8.76;100.00;98363.56;1224707;75;2894344;-67
2023/12/04 05:50:20;;;;;;;12.50;8.15;;;;;;;-8.69;100.00;98356.59;1223549;75;2962180;-64
2023/12/04 05:52:53;;;;;;;10.80;7.15;;;;;;;-8.70;100.00;98349.00;1223337;75;2924730;-63
2023/12/04 05:55:27;;;;;;;8.95;6.05;;;;;;;-8.74;100.00;98350.75;1223152;75;2920283;-63
2023/12/04 05:57:59;;;;;;;8.20;5.40;;;;;;;-8.73;100.00;98352.28;1223547;75;2924923;-65
2023/12/04 06:00:37;;;;;;;8.95;5.05;;;;;;;-8.81;100.00;98346.75;1223993;75;2921141;-67
2023/12/04 06:03:09;;;;;;;6.95;4.50;;;;;;;-8.86;100.00;98349.63;1223142;75;2924487;-64
2023/12/04 06:05:42;;;;;;;6.50;4.80;;;;;;;-8.88;100.00;98351.06;1223640;75;2927632;-65
2023/12/04 06:08:15;;;;;;;7.45;5.00;;;;;;;-8.88;100.00;98351.06;1223878;75;2921979;-64
2023/12/04 06:10:49;;;;;;;8.15;5.55;;;;;;;-8.89;100.00;98357.47;1223385;75;2919909;-64
2023/12/04 06:13:21;;;;;;;7.95;5.25;;;;;;;-8.86;100.00;98354.16;1223738;75;2935679;-66
2023/12/04 06:15:57;;;;;;;6.50;5.10;;;;;;;-8.83;100.00;98362.22;1222644;75;2921256;-65
2023/12/04 06:18:30;;;;;;;5.85;4.25;;;;;;;-8.86;100.00;98362.88;1223269;75;2926543;-67
2023/12/04 06:21:02;;;;;;;7.15;4.60;;;;;;;-8.83;100.00;98359.56;1222990;75;2925708;-64
2023/12/04 06:23:36;;;;;;;5.70;4.15;;;;;;;-8.87;100.00;98364.00;1223714;75;2920079;-63
2023/12/04 06:26:12;;;;;;;6.95;4.60;;;;;;;-8.82;100.00;98357.72;1223561;75;2925707;-61
2023/12/04 06:28:46;;;;;;;7.70;4.95;;;;;;;-8.85;100.00;98361.00;1223328;75;2927974;-64
2023/12/04 06:31:22;;;;;;;9.05;5.90;;;;;;;-8.93;100.00;98354.69;1224067;75;2928745;-64
2023/12/04 06:33:56;;;;;;;9.80;6.15;;;;;;;-8.81;100.00;98356.59;1223880;75;2928590;-64
2023/12/04 06:36:35;;;;;;;11.10;6.60;;;;;;;-8.77;100.00;98354.06;1221695;75;2924228;-61
2023/12/04 06:39:12;;;;;;;10.65;6.90;;;;;;;-8.70;100.00;98356.97;1224017;75;2925820;-65
2023/12/04 06:41:48;;;;;;;9.10;6.50;;;;;;;-8.68;100.00;98360.03;1223590;75;2930930;-63
2023/12/04 06:44:21;;;;;;;13.30;8.30;;;;;;;-8.68;100.00;98360.03;1224061;75;2929360;-63
2023/12/04 06:46:59;;;;;;;11.05;7.30;;;;;;;-8.61;100.00;98347.78;1224121;75;2931593;-64
2023/12/04 06:49:35;;;;;;;10.10;7.35;;;;;;;-8.58;100.00;98352.41;1223770;75;2925817;-62
2023/12/04 06:52:09;;;;;;;10.95;7.30;;;;;;;-8.53;100.00;98343.47;1224404;75;2930366;-62
2023/12/04 06:54:42;;;;;;;9.75;7.05;;;;;;;-8.46;100.00;98342.91;1223852;75;2929706;-64
2023/12/04 06:57:14;;;;;;;9.00;6.40;;;;;;;-8.47;100.00;98336.81;1222949;75;2924026;-64
2023/12/04 06:59:50;;;;;;;8.25;5.65;;;;;;;-8.45;100.00;98342.56;1223798;75;2929666;-63
2023/12/04 07:02:25;;;;;;;7.95;5.10;;;;;;;-8.36;100.00;98337.13;1223087;75;2926933;-64
2023/12/04 07:04:58;;;;;;;6.35;5.05;;;;;;;-8.29;100.00;98347.19;1224280;75;2920283;-64
2023/12/04 07:07:31;;;;;;;7.95;5.60;;;;;;;-8.21;100.00;98340.97;1223733;75;2926185;-65
2023/12/04 07:10:04;;;;;;;7.00;5.40;;;;;;;-8.21;100.00;98347.06;1222927;75;2939941;-64
2023/12/04 07:12:37;;;;;;;8.75;6.00;;;;;;;-8.11;100.00;98353.03;1223557;75;2930370;-63
2023/12/04 07:15:11;;;;;;;9.90;6.45;;;;;;;-7.94;100.00;98348.25;1224622;75;2925317;-64
2023/12/04 07:17:50;;;;;;;8.80;6.20;;;;;;;-7.81;100.00;98348.97;1218586;75;3293588;-63
2023/12/04 07:20:24;;;;;;;10.00;7.15;;;;;;;-7.67;100.00;98350.47;1219391;75;3143821;-65
2023/12/04 07:22:58;;;;;;;10.95;7.95;;;;;;;-7.58;100.00;98346.56;1222976;75;2925679;-61
2023/12/04 07:25:31;;;;;;;11.70;8.05;;;;;;;-7.49;100.00;98343.78;1224405;75;2922846;-66
2023/12/04 07:28:04;;;;;;;12.05;8.45;;;;;;;-7.32;100.00;98346.13;1224032;75;2934456;-64
2023/12/04 07:30:37;;;;;;;12.95;8.10;;;;;;;-7.22;100.00;98347.53;1223312;75;2935428;-66
2023/12/04 07:33:12;;;;;;;11.35;7.80;;;;;;;-6.94;100.00;98342.16;1224080;75;2921293;-67
2023/12/04 07:35:45;;;;;;;10.55;6.95;;;;;;;-6.49;100.00;98346.28;1223049;75;2924274;-65
2023/12/04 07:38:18;;;;;;;11.95;8.20;;;;;;;-5.64;100.00;98335.88;1223001;75;2925725;-66
2023/12/04 07:40:51;;;;;;;15.45;9.60;;;;;;;-4.62;100.00;98339.22;1222854;75;2935561;-67
2023/12/04 07:43:24;;;;;;;12.15;9.05;;;;;;;-3.67;100.00;98338.28;1222688;75;2924377;-63
2023/12/04 07:45:59;;;;;;;11.50;7.85;;;;;;;-2.80;96.03;98340.72;1222250;75;2931296;-63
2023/12/04 07:48:35;;;;;;;8.95;7.15;;;;;;;-2.78;91.62;98344.56;1223875;75;2919562;-63
2023/12/04 07:51:08;;;;;;;8.55;7.40;;;;;;;-3.17;86.34;98333.47;1223108;75;2923494;-63
2023/12/04 07:53:41;;;;;;;7.75;6.20;;;;;;;-3.52;88.19;98337.28;1223262;75;2923130;-64
2023/12/04 07:56:16;;;;;;;8.00;5.90;;;;;;;-3.74;89.44;98338.19;1223326;75;2937930;-63
2023/12/04 07:58:49;;;;;;;6.80;5.85;;;;;;;-3.59;92.25;98339.13;1223510;75;2924485;-63
2023/12/04 08:01:23;;;;;;;6.70;5.50;;;;;;;-3.38;88.78;98341.28;1223445;75;2919445;-63
2023/12/04 08:03:59;;;;;;;6.70;6.00;;;;;;;-3.73;92.50;98337.84;1223839;75;2926151;-65
2023/12/04 08:06:31;;;;;;;7.65;6.00;;;;;;;-3.71;97.30;98342.78;1223406;75;2923202;-64
2023/12/04 08:09:05;;;;;;;6.85;5.80;;;;;;;-3.54;95.29;98344.16;1223745;75;2932045;-63
2023/12/04 08:11:38;;;;;;;7.50;6.10;;;;;;;-3.52;99.51;98341.88;1223559;75;2932620;-63
2023/12/04 08:14:11;;;;;;;6.65;5.50;;;;;;;-3.51;97.70;98332.72;1223878;75;2917771;-61
2023/12/04 08:16:44;;;;;;;7.40;6.35;;;;;;;-3.71;95.22;98337.44;1223423;75;2940626;-62
2023/12/04 08:19:20;;;;;;;10.20;7.35;;;;;;;-3.96;100.00;98337.13;1223194;75;2931118;-61
2023/12/04 08:21:53;;;;;;;10.65;9.00;;;;;;;-4.18;100.00;98336.84;1224096;75;2920702;-64
2023/12/04 08:24:26;;;;;;;12.45;9.90;;;;;;;-4.36;100.00;98333.13;1224546;67;2921072;-65
2023/12/04 08:27:00;;;;;;;12.05;9.35;;;;;;;-3.44;100.00;98324.75;1225114;75;2940229;-63
2023/12/04 08:29:32;;;;;;;10.45;7.90;;;;;;;-3.12;98.72;98309.03;1223247;75;2922093;-65
2023/12/04 08:32:06;;;;;;;9.45;7.70;;;;;;;-3.39;100.00;98303.03;1223944;75;2922729;-63
2023/12/04 08:34:42;;;;;;;11.30;8.75;;;;;;;-2.40;94.97;98310.41;1224905;75;2925267;-62
2023/12/04 08:37:14;;;;;;;14.25;9.70;;;;;;;-2.86;93.90;98293.94;1224078;75;2926373;-68
2023/12/04 08:39:47;;;;;;;13.70;10.90;;;;;;;-3.61;99.65;98304.69;1222822;75;2933889;-63
2023/12/04 08:42:20;;;;;;;16.25;12.55;;;;;;;-3.50;100.00;98308.28;1223376;75;2925072;-65
2023/12/04 08:44:53;;;;;;;13.95;11.10;;;;;;;-3.23;100.00;98310.84;1223344;75;2930172;-65
2023/12/04 08:47:26;;;;;;;16.35;12.20;;;;;;;-3.68;100.00;98305.41;1221496;75;2926346;-63
2023/12/04 08:50:03;;;;;;;16.40;11.80;;;;;;;-3.45;100.00;98293.78;1223260;75;2920500;-64
2023/12/04 08:52:37;;;;;;;17.50;12.25;;;;;;;-3.75;100.00;98294.63;1222804;75;2939353;-62
2023/12/04 08:55:11;;;;;;;14.85;11.35;;;;;;;-3.33;100.00;98303.47;1223806;75;2923923;-63
2023/12/04 08:57:44;;;;;;;15.90;12.05;;;;;;;-3.34;100.00;98308.06;1223613;75;2925695;-64
2023/12/04 09:00:19;;;;;;;16.65;12.10;;;;;;;-2.72;100.00;98310.16;1220249;75;2953467;-64
2023/12/04 09:02:52;;;;;;;15.50;12.10;;;;;;;-2.30;96.03;98302.81;1223840;75;2923627;-63
2023/12/04 09:05:29;;;;;;;15.45;12.40;;;;;;;-1.10;90.06;98304.44;1224430;75;2928341;-64
2023/12/04 09:08:02;;;;;;;15.15;11.30;;;;;;;-0.22;82.62;98293.28;1223764;75;2925556;-65
2023/12/04 09:10:35;;;;;;;14.20;10.65;;;;;;;0.35;77.93;98289.66;1223529;75;2919389;-66
2023/12/04 09:13:08;;;;;;;11.55;8.65;;;;;;;1.04;72.52;98296.22;1223262;75;2923355;-64
2023/12/04 09:15:41;;;;;;;15.35;9.65;;;;;;;0.99;70.93;98299.34;1222185;75;2931118;-62
2023/12/04 09:18:14;;;;;;;15.50;10.70;;;;;;;0.91;69.82;98274.31;1223300;75;2924598;-64
2023/12/04 09:20:49;;;;;;;17.05;11.25;;;;;;;1.69;67.36;98285.66;1222694;75;2930268;-62
2023/12/04 09:23:22;;;;;;;15.05;10.10;;;;;;;2.67;64.28;98280.66;1223146;67;2923698;-63
2023/12/04 09:25:55;;;;;;;11.85;8.55;;;;;;;3.04;62.36;98268.19;1221350;75;2929342;-66
2023/12/04 09:28:31;;;;;;;10.95;7.55;;;;;;;4.08;59.24;98258.28;1221987;75;2922491;-63
2023/12/04 09:31:04;;;;;;;15.05;10.05;;;;;;;2.18;62.65;98259.28;1221825;75;2931182;-65
2023/12/04 09:33:36;;;;;;;14.25;9.55;;;;;;;4.61;58.80;98251.75;1222669;75;2931878;-65
2023/12/04 09:36:13;;;;;;;15.25;8.95;;;;;;;3.98;56.72;98244.50;1222693;75;2923177;-64
2023/12/04 09:38:47;;;;;;;13.70;9.45;;;;;;;3.73;58.26;98236.09;1222419;75;2921393;-65
2023/12/04 09:41:21;;;;;;;13.95;9.00;;;;;;;4.89;56.02;98238.75;1222249;75;2919993;-65
2023/12/04 09:43:55;;;;;;;12.70;8.90;;;;;;;4.59;55.21;98234.38;1222814;75;2923849;-67
2023/12/04 09:46:28;;;;;;;11.25;7.80;;;;;;;6.23;53.89;98232.25;1223193;75;2923155;-62
2023/12/04 09:49:01;;;;;;;10.90;7.10;;;;;;;5.87;52.56;98214.19;1222364;75;2919267;-65
2023/12/04 09:51:37;;;;;;;11.15;6.85;;;;;;;6.82;51.47;98219.97;1222623;75;2920754;-68
2023/12/04 09:54:11;;;;;;;10.85;7.45;;;;;;;7.94;49.23;98213.56;1222591;75;2915406;-62
2023/12/04 09:56:44;;;;;;;13.90;9.80;;;;;;;6.32;51.12;98212.56;1221559;75;2919533;-64
2023/12/04 09:59:19;;;;;;;14.10;10.05;;;;;;;5.76;53.21;98211.00;1221574;75;2927587;-63
2023/12/04 10:01:52;;;;;;;10.40;7.50;;;;;;;8.85;49.84;98199.69;1221973;75;2922115;-66
2023/12/04 10:04:25;;;;;;;12.00;9.00;;;;;;;7.36;48.72;98195.72;1223005;75;2923981;-67
2023/12/04 10:07:00;;;;;;;10.25;8.15;;;;;;;8.35;46.83;98177.03;1222509;75;2917386;-64
2023/12/04 10:09:33;;;;;;;9.95;7.05;;;;;;;10.19;44.19;98169.03;1221969;75;2926145;-64
2023/12/04 10:12:09;;;;;;;7.55;6.00;;;;;;;11.87;39.68;98160.13;1221869;75;2927590;-61
2023/12/04 10:14:41;;;;;;;7.95;5.50;;;;;;;12.01;40.39;98160.63;1222414;75;2922746;-65
2023/12/04 10:17:19;;;;;;;8.40;6.35;;;;;;;10.34;40.99;98160.97;1222732;75;2921366;-67
2023/12/04 10:20:11;;;;;;;9.90;6.30;;;;;;;9.53;43.60;98152.44;1222664;75;2919690;-68
2023/12/04 10:22:58;;;;;;;8.05;6.05;;;;;;;9.13;43.63;98154.06;1222170;75;2927701;-65
2023/12/04 10:25:33;;;;;;;7.35;5.15;;;;;;;9.91;42.53;98148.41;1222626;75;2923695;-65
2023/12/04 10:28:15;;;;;;;9.80;7.20;;;;;;;6.64;45.82;98145.56;1223435;75;2931305;-64
2023/12/04 10:30:50;;;;;;;8.60;5.95;;;;;;;7.67;44.88;98133.16;1222630;75;2923173;-66
2023/12/04 10:33:22;;;;;;;9.25;6.10;;;;;;;7.24;47.50;98129.97;1222165;75;2926945;-66
2023/12/04 10:35:55;;;;;;;9.25;6.05;;;;;;;7.20;46.12;98136.75;1217293;75;3250124;-67
2023/12/04 10:38:31;;;;;;;8.60;5.75;;;;;;;7.20;46.55;98123.13;1223081;75;2918553;-66
2023/12/04 10:41:16;;;;;;;9.85;6.60;;;;;;;6.92;47.53;98117.41;1221330;75;2947903;-64
2023/12/04 10:43:52;;;;;;;10.15;5.75;;;;;;;6.68;47.87;98113.56;1223645;75;2913760;-61
2023/12/04 10:46:27;;;;;;;7.50;5.75;;;;;;;6.49;47.01;98107.91;1222715;75;2923633;-66
2023/12/04 10:49:01;;;;;;;6.50;4.60;;;;;;;7.85;45.88;98097.09;1222734;75;2927892;-67
2023/12/04 10:51:34;;;;;;;7.15;5.15;;;;;;;6.02;48.27;98105.88;1222324;75;2921561;-66
2023/12/04 10:54:12;;;;;;;6.75;5.25;;;;;;;5.14;51.63;98105.16;1223173;75;2925981;-62
2023/12/04 10:56:51;;;;;;;8.40;6.80;;;;;;;4.83;54.29;98092.00;1222548;75;2922660;-65
2023/12/04 10:59:31;;;;;;;11.45;7.70;;;;;;;3.09;57.07;98095.38;1223396;75;2927559;-65
2023/12/04 11:02:08;;;;;;;10.05;7.25;;;;;;;4.38;56.20;98089.25;1222159;75;2940808;-63
2023/12/04 11:04:42;;;;;;;12.35;7.50;;;;;;;4.02;55.72;98084.63;1224253;75;2925745;-63
2023/12/04 11:07:14;;;;;;;10.95;7.05;;;;;;;4.24;55.45;98082.19;1223389;75;2928245;-64
2023/12/04 11:09:52;;;;;;;10.35;7.50;;;;;;;4.47;55.71;98084.75;1222975;75;2934601;-64
2023/12/04 11:12:32;;;;;;;9.45;7.25;;;;;;;3.28;58.96;98074.16;1223927;75;2923326;-67
2023/12/04 11:15:10;;;;;;;11.15;8.35;;;;;;;2.12;60.72;98077.28;1224155;75;2918997;-65
2023/12/04 11:17:45;;;;;;;10.45;7.45;;;;;;;2.04;62.85;98073.13;1223468;75;2919627;-64
2023/12/04 11:20:23;;;;;;;12.55;8.15;;;;;;;1.41;65.27;98071.63;1223971;67;2927714;-63
2023/12/04 11:22:57;;;;;;;12.30;8.80;;;;;;;1.33;66.84;98078.28;1224371;75;2921725;-68
2023/12/04 11:25:34;;;;;;;10.90;8.70;;;;;;;0.41;70.10;98072.63;1224333;75;2921310;-65
2023/12/04 11:28:09;;;;;;;12.80;8.80;;;;;;;0.16;73.17;98067.44;1223369;75;2919439;-64
2023/12/04 11:30:42;;;;;;;10.50;7.65;;;;;;;0.69;72.67;98063.53;1223350;75;2920998;-66
2023/12/04 11:33:15;;;;;;;9.85;7.80;;;;;;;0.03;75.78;98055.63;1223443;75;2916481;-68
2023/12/04 11:35:49;;;;;;;13.05;8.55;;;;;;;0.51;74.43;98041.38;1173832;75;5599245;-62
2023/12/04 11:38:23;;;;;;;10.15;7.70;;;;;;;0.06;77.00;98042.13;1203734;75;4134171;-69
2023/12/04 11:41:01;;;;;;;14.50;8.30;;;;;;;0.31;77.65;98044.59;1223197;75;2921838;-63